KJAX/JAX METAR and TAF weather

Enter ICAO airport designator
Station Type Date Time Source
KJAX METAR 2020/11/25 21:56 UTC NOAA

KJAX 252156Z 13007KT 10SM FEW040 23/17 A3014 RMK AO2 SLP207 T02330167


Station Type Date Time Source
KJAX Decoded METAR 2020/11/25 21:56 UTC NOAA

JACKSONVILLE INTERNATIONAL, FL, United States (KJAX) 30-30N 81-42W 7M
Nov 25, 2020 - 04:56 PM EST / 2020.11.25 2156 UTC
Wind: from the SE (130 degrees) at 8 MPH (7 KT):0
Visibility: 10 mile(s):0
Sky conditions: mostly clear
Temperature: 73.9 F (23.3 C)
Dew Point: 62.1 F (16.7 C)
Relative Humidity: 66%
Pressure (altimeter): 30.14 in. Hg (1020 hPa)
ob: KJAX 252156Z 13007KT 10SM FEW040 23/17 A3014 RMK AO2 SLP207 T02330167
cycle: 22

Station Type Date Time Source
KJAX TAF 2020/11/25 21:03 UTC NOAA

TAF
AMD KJAX 252101Z 2521/2618 14012KT P6SM SCT045 SCT150
FM260000 16004KT P6SM FEW040 FEW250

Example: see airport list